Terminal Aerodrome Forecast
Issued by NWS Huntsville, AL

Home | Current Version | Previous Version | Text Only | Print | Product List | Glossary On
Versions: 1 2 3 4 5 6 7 8 9 10 11 12
000
FTUS44 KHUN 180520
TAFHSV
TAF
KHSV 180520Z 1806/1906 11008KT P6SM BKN035 OVC060
     FM181200 07008KT P6SM VCSH OVC040
      TEMPO 1813/1816 BKN025
     FM181600 07006KT P6SM OVC070=

USA.gov is the U.S. government's official web portal to all federal, state and local government web resources and services.